sensor_id;sensor_type;location;lat;lon;timestamp;temperature;humidity
40630;DHT22;26329;40.388;-3.710;2023-07-13T00:03:05;28.00;32.80
40630;DHT22;26329;40.388;-3.710;2023-07-13T00:13:05;28.00;32.90
40630;DHT22;26329;40.388;-3.710;2023-07-13T00:23:06;27.80;33.20
40630;DHT22;26329;40.388;-3.710;2023-07-13T00:33:07;27.70;33.50
40630;DHT22;26329;40.388;-3.710;2023-07-13T00:43:17;27.70;33.60
40630;DHT22;26329;40.388;-3.710;2023-07-13T00:53:19;27.60;34.10
40630;DHT22;26329;40.388;-3.710;2023-07-13T01:03:20;27.50;34.60
40630;DHT22;26329;40.388;-3.710;2023-07-13T01:13:21;27.40;35.30
40630;DHT22;26329;40.388;-3.710;2023-07-13T01:23:22;27.40;35.80
40630;DHT22;26329;40.388;-3.710;2023-07-13T01:33:25;27.30;36.30
40630;DHT22;26329;40.388;-3.710;2023-07-13T01:43:25;27.30;36.70
40630;DHT22;26329;40.388;-3.710;2023-07-13T01:53:26;27.20;37.20
40630;DHT22;26329;40.388;-3.710;2023-07-13T02:03:27;27.10;37.50
40630;DHT22;26329;40.388;-3.710;2023-07-13T02:13:28;27.00;37.70
40630;DHT22;26329;40.388;-3.710;2023-07-13T02:23:29;26.80;38.20
40630;DHT22;26329;40.388;-3.710;2023-07-13T02:33:30;26.70;38.70
40630;DHT22;26329;40.388;-3.710;2023-07-13T02:43:31;26.60;38.90
40630;DHT22;26329;40.388;-3.710;2023-07-13T02:53:31;26.70;38.60
40630;DHT22;26329;40.388;-3.710;2023-07-13T03:03:32;26.70;34.60
40630;DHT22;26329;40.388;-3.710;2023-07-13T03:13:33;26.70;34.40
40630;DHT22;26329;40.388;-3.710;2023-07-13T03:23:35;26.70;34.60
40630;DHT22;26329;40.388;-3.710;2023-07-13T03:33:36;26.60;34.90
40630;DHT22;26329;40.388;-3.710;2023-07-13T03:43:37;26.60;35.00
40630;DHT22;26329;40.388;-3.710;2023-07-13T03:53:39;26.40;35.20
40630;DHT22;26329;40.388;-3.710;2023-07-13T04:03:41;26.20;35.50
40630;DHT22;26329;40.388;-3.710;2023-07-13T04:13:42;26.20;36.20
40630;DHT22;26329;40.388;-3.710;2023-07-13T04:23:43;26.10;37.00
40630;DHT22;26329;40.388;-3.710;2023-07-13T04:33:43;26.00;38.50
40630;DHT22;26329;40.388;-3.710;2023-07-13T04:43:44;25.80;40.10
40630;DHT22;26329;40.388;-3.710;2023-07-13T04:53:45;25.70;40.50
40630;DHT22;26329;40.388;-3.710;2023-07-13T05:03:45;25.50;41.10
40630;DHT22;26329;40.388;-3.710;2023-07-13T05:13:46;24.80;40.90
40630;DHT22;26329;40.388;-3.710;2023-07-13T05:23:47;24.30;41.50
40630;DHT22;26329;40.388;-3.710;2023-07-13T05:33:48;24.20;41.50
40630;DHT22;26329;40.388;-3.710;2023-07-13T05:43:48;24.20;42.20
40630;DHT22;26329;40.388;-3.710;2023-07-13T05:53:49;24.20;42.50
40630;DHT22;26329;40.388;-3.710;2023-07-13T06:03:50;24.10;43.00
40630;DHT22;26329;40.388;-3.710;2023-07-13T06:13:51;24.20;43.20
40630;DHT22;26329;40.388;-3.710;2023-07-13T06:23:52;24.40;43.50
40630;DHT22;26329;40.388;-3.710;2023-07-13T06:33:53;24.70;43.40
40630;DHT22;26329;40.388;-3.710;2023-07-13T06:43:54;25.20;42.80
40630;DHT22;26329;40.388;-3.710;2023-07-13T14:27:41;35.70;21.80
40630;DHT22;26329;40.388;-3.710;2023-07-13T14:37:43;35.10;22.10
40630;DHT22;26329;40.388;-3.710;2023-07-13T14:47:44;34.90;23.00
40630;DHT22;26329;40.388;-3.710;2023-07-13T14:57:45;34.70;22.50
40630;DHT22;26329;40.388;-3.710;2023-07-13T15:07:46;34.70;22.70
40630;DHT22;26329;40.388;-3.710;2023-07-13T15:17:48;34.90;22.60
40630;DHT22;26329;40.388;-3.710;2023-07-13T15:27:49;34.80;22.30
40630;DHT22;26329;40.388;-3.710;2023-07-13T15:37:50;34.80;22.00
40630;DHT22;26329;40.388;-3.710;2023-07-13T15:47:51;34.80;22.00
40630;DHT22;26329;40.388;-3.710;2023-07-13T15:57:52;35.00;20.80
40630;DHT22;26329;40.388;-3.710;2023-07-13T16:07:53;35.10;21.20
40630;DHT22;26329;40.388;-3.710;2023-07-13T16:17:54;35.00;21.30
40630;DHT22;26329;40.388;-3.710;2023-07-13T16:27:55;35.10;20.40
40630;DHT22;26329;40.388;-3.710;2023-07-13T16:38:03;35.20;20.10
40630;DHT22;26329;40.388;-3.710;2023-07-13T16:48:12;35.10;20.70
40630;DHT22;26329;40.388;-3.710;2023-07-13T16:58:15;35.10;20.60
40630;DHT22;26329;40.388;-3.710;2023-07-13T17:08:18;35.10;20.80
40630;DHT22;26329;40.388;-3.710;2023-07-13T17:18:29;35.00;20.30
40630;DHT22;26329;40.388;-3.710;2023-07-13T17:28:37;34.90;20.20
40630;DHT22;26329;40.388;-3.710;2023-07-13T17:38:44;34.90;20.00
40630;DHT22;26329;40.388;-3.710;2023-07-13T17:48:48;34.70;20.60
40630;DHT22;26329;40.388;-3.710;2023-07-13T17:58:50;34.70;20.40
40630;DHT22;26329;40.388;-3.710;2023-07-13T18:08:54;34.70;20.50
40630;DHT22;26329;40.388;-3.710;2023-07-13T18:18:56;34.60;20.90
40630;DHT22;26329;40.388;-3.710;2023-07-13T18:28:57;34.50;21.60
40630;DHT22;26329;40.388;-3.710;2023-07-13T18:38:58;34.30;21.90
40630;DHT22;26329;40.388;-3.710;2023-07-13T18:49:00;34.20;22.80
40630;DHT22;26329;40.388;-3.710;2023-07-13T18:59:01;34.00;23.30
40630;DHT22;26329;40.388;-3.710;2023-07-13T19:09:04;33.90;23.60
40630;DHT22;26329;40.388;-3.710;2023-07-13T19:19:15;33.70;24.00
40630;DHT22;26329;40.388;-3.710;2023-07-13T19:29:17;33.60;24.50
40630;DHT22;26329;40.388;-3.710;2023-07-13T19:39:22;33.30;25.10
40630;DHT22;26329;40.388;-3.710;2023-07-13T19:49:24;33.10;25.30
40630;DHT22;26329;40.388;-3.710;2023-07-13T19:59:30;32.90;26.00
40630;DHT22;26329;40.388;-3.710;2023-07-13T20:09:31;32.60;27.10
40630;DHT22;26329;40.388;-3.710;2023-07-13T20:19:35;32.60;27.40
40630;DHT22;26329;40.388;-3.710;2023-07-13T20:29:35;32.40;27.70
40630;DHT22;26329;40.388;-3.710;2023-07-13T20:39:36;32.30;28.00
40630;DHT22;26329;40.388;-3.710;2023-07-13T20:49:37;32.10;28.50
40630;DHT22;26329;40.388;-3.710;2023-07-13T20:59:39;32.00;29.20
40630;DHT22;26329;40.388;-3.710;2023-07-13T21:09:41;31.80;30.20
40630;DHT22;26329;40.388;-3.710;2023-07-13T21:19:41;31.60;30.70
40630;DHT22;26329;40.388;-3.710;2023-07-13T21:29:44;31.50;31.30
40630;DHT22;26329;40.388;-3.710;2023-07-13T21:39:50;31.30;31.90
40630;DHT22;26329;40.388;-3.710;2023-07-13T21:49:51;31.10;32.00
40630;DHT22;26329;40.388;-3.710;2023-07-13T21:59:52;30.90;32.10
40630;DHT22;26329;40.388;-3.710;2023-07-13T22:09:53;30.70;32.50
40630;DHT22;26329;40.388;-3.710;2023-07-13T22:19:53;30.50;32.50
40630;DHT22;26329;40.388;-3.710;2023-07-13T22:29:54;30.30;32.60
40630;DHT22;26329;40.388;-3.710;2023-07-13T22:39:55;30.20;32.70
40630;DHT22;26329;40.388;-3.710;2023-07-13T22:49:56;30.10;32.30
40630;DHT22;26329;40.388;-3.710;2023-07-13T22:59:57;29.90;32.50
40630;DHT22;26329;40.388;-3.710;2023-07-13T23:09:58;29.70;32.80
40630;DHT22;26329;40.388;-3.710;2023-07-13T23:19:59;29.50;33.30
40630;DHT22;26329;40.388;-3.710;2023-07-13T23:29:59;29.30;33.60
40630;DHT22;26329;40.388;-3.710;2023-07-13T23:40:00;29.30;33.60
40630;DHT22;26329;40.388;-3.710;2023-07-13T23:50:18;29.10;34.30
